createdAt,value
2018-03-08T00:01:00.892Z,972.37
2018-03-08T00:02:10.612Z,972.34
2018-03-08T00:03:20.342Z,972.37
2018-03-08T00:04:30.337Z,972.32
2018-03-08T00:05:39.807Z,972.35
2018-03-08T00:06:49.548Z,972.36
2018-03-08T00:07:59.844Z,972.39
2018-03-08T00:09:09.569Z,972.4
2018-03-08T00:10:19.560Z,972.37
2018-03-08T00:11:29.288Z,972.39
2018-03-08T00:12:39.307Z,972.37
2018-03-08T00:13:49.299Z,972.37
2018-03-08T00:14:58.760Z,972.35
2018-03-08T00:16:08.225Z,972.39
2018-03-08T00:17:18.219Z,972.38
2018-03-08T00:18:28.209Z,972.4
2018-03-08T00:19:38.212Z,972.35
2018-03-08T00:20:48.213Z,972.37
2018-03-08T00:21:57.947Z,972.31
2018-03-08T00:23:07.940Z,972.34
2018-03-08T00:24:17.676Z,972.32
2018-03-08T00:25:27.505Z,972.34
2018-03-08T00:26:37.234Z,972.37
2018-03-08T00:27:47.239Z,972.35
2018-03-08T00:28:56.962Z,972.3
2018-03-08T00:30:06.962Z,972.32
2018-03-08T00:31:16.963Z,972.3
2018-03-08T00:32:26.691Z,972.32
2018-03-08T00:33:36.691Z,972.28
2018-03-08T00:34:46.692Z,972.29
2018-03-08T00:35:56.433Z,972.33
2018-03-08T00:37:06.164Z,972.32
2018-03-08T00:38:16.164Z,972.28
2018-03-08T00:39:26.159Z,972.28
2018-03-08T00:40:35.885Z,972.27
2018-03-08T00:41:45.342Z,972.29
2018-03-08T00:42:55.068Z,972.29
2018-03-08T00:44:05.071Z,972.27
2018-03-08T00:45:15.068Z,972.27
2018-03-08T00:46:24.799Z,972.25
2018-03-08T00:47:34.807Z,972.23
2018-03-08T00:48:44.811Z,972.23
2018-03-08T00:49:54.267Z,972.22
2018-03-08T00:51:04.275Z,972.24
2018-03-08T00:52:13.467Z,972.19
2018-03-08T00:53:23.469Z,972.19
2018-03-08T00:54:33.469Z,972.18
2018-03-08T00:55:43.501Z,972.14
2018-03-08T00:56:53.494Z,972.16
2018-03-08T00:58:03.231Z,972.2
2018-03-08T00:59:13.220Z,972.15
2018-03-08T01:00:22.949Z,972.16
2018-03-08T01:01:33.004Z,972.15
2018-03-08T01:02:42.728Z,972.17
2018-03-08T01:03:52.728Z,972.11
2018-03-08T01:05:02.769Z,972.11
2018-03-08T01:06:12.766Z,972.12
2018-03-08T01:07:22.532Z,972.1
2018-03-08T01:08:32.260Z,972.1
2018-03-08T01:09:42.256Z,972.1
2018-03-08T01:10:52.260Z,972.09
2018-03-08T01:12:02.259Z,972.1
2018-03-08T01:13:11.990Z,972.1
2018-03-08T01:14:21.986Z,972.05
2018-03-08T01:15:31.459Z,972.08
2018-03-08T01:16:40.926Z,972.1
2018-03-08T01:17:50.389Z,972.11
2018-03-08T01:19:00.116Z,972.07
2018-03-08T01:20:09.847Z,972.06
2018-03-08T01:21:19.838Z,972.05
2018-03-08T01:22:29.294Z,972.08
2018-03-08T01:23:39.021Z,972.02
2018-03-08T01:24:49.016Z,972.03
2018-03-08T01:25:59.011Z,972.03
2018-03-08T01:27:08.734Z,972.03
2018-03-08T01:28:17.925Z,972.05
2018-03-08T01:29:27.660Z,972.04
2018-03-08T01:30:37.663Z,972.01
2018-03-08T01:31:47.395Z,971.99
2018-03-08T01:32:57.127Z,971.99
2018-03-08T01:34:06.853Z,972
2018-03-08T01:35:16.897Z,971.98
2018-03-08T01:36:26.896Z,971.93
2018-03-08T01:37:36.918Z,971.93
2018-03-08T01:38:46.920Z,971.98
2018-03-08T01:39:56.952Z,971.94
2018-03-08T01:41:06.969Z,971.9
2018-03-08T01:42:16.963Z,971.9
2018-03-08T01:43:26.420Z,971.9
2018-03-08T01:44:35.879Z,971.91
2018-03-08T01:45:45.609Z,971.9
2018-03-08T01:46:55.610Z,971.87
2018-03-08T01:48:05.599Z,971.88
2018-03-08T01:49:15.325Z,971.89
2018-03-08T01:50:25.059Z,971.97
2018-03-08T01:51:34.787Z,971.96
2018-03-08T01:52:44.521Z,971.91
2018-03-08T01:53:54.527Z,971.88
2018-03-08T01:55:04.258Z,971.89
2018-03-08T01:56:13.979Z,971.9
2018-03-08T01:57:23.715Z,971.86
2018-03-08T01:58:33.704Z,971.87
2018-03-08T01:59:43.433Z,971.84
2018-03-08T02:00:53.423Z,971.84
2018-03-08T02:02:03.155Z,971.78
2018-03-08T02:03:13.143Z,971.81
2018-03-08T02:04:22.607Z,971.72
2018-03-08T02:05:32.623Z,971.77
2018-03-08T02:06:42.084Z,971.77
2018-03-08T02:07:51.549Z,971.69
2018-03-08T02:09:01.553Z,971.72
2018-03-08T02:10:11.014Z,971.73
2018-03-08T02:11:21.014Z,971.74
2018-03-08T02:12:30.477Z,971.7
2018-03-08T02:13:39.960Z,971.64
2018-03-08T02:14:49.959Z,971.68
2018-03-08T02:15:59.957Z,971.67
2018-03-08T02:17:09.960Z,971.66
2018-03-08T02:18:19.956Z,971.6
2018-03-08T02:19:29.942Z,971.6
2018-03-08T02:20:39.930Z,971.56
2018-03-08T02:21:49.660Z,971.59
2018-03-08T02:22:59.655Z,971.6
2018-03-08T02:24:09.382Z,971.58
2018-03-08T02:25:19.374Z,971.6
2018-03-08T02:26:29.377Z,971.61
2018-03-08T02:27:39.378Z,971.59
2018-03-08T02:28:48.840Z,971.58
2018-03-08T02:29:58.833Z,971.57
2018-03-08T02:31:08.577Z,971.57
2018-03-08T02:32:18.321Z,971.57
2018-03-08T02:33:28.324Z,971.55
2018-03-08T02:34:37.792Z,971.55
2018-03-08T02:35:47.803Z,971.56
2018-03-08T02:36:57.547Z,971.56
2018-03-08T02:38:07.289Z,971.53
2018-03-08T02:39:17.287Z,971.53
2018-03-08T02:40:27.288Z,971.5
2018-03-08T02:41:37.287Z,971.48
2018-03-08T02:42:47.277Z,971.46
2018-03-08T02:43:57.299Z,971.49
2018-03-08T02:45:06.494Z,971.48
2018-03-08T02:46:16.220Z,971.47
2018-03-08T02:47:26.237Z,971.46
2018-03-08T02:48:36.251Z,971.43
2018-03-08T02:49:46.255Z,971.45
2018-03-08T02:50:55.740Z,971.44
2018-03-08T02:52:05.211Z,971.46
2018-03-08T02:53:14.957Z,971.5
2018-03-08T02:54:24.416Z,971.51
2018-03-08T02:55:34.158Z,971.48
2018-03-08T02:56:44.159Z,971.52
2018-03-08T02:57:54.164Z,971.48
2018-03-08T02:59:04.164Z,971.49
2018-03-08T03:00:14.160Z,971.51
2018-03-08T03:01:23.888Z,971.45
2018-03-08T03:02:33.903Z,971.46
2018-03-08T03:03:43.903Z,971.46
2018-03-08T03:04:53.913Z,971.44
2018-03-08T03:06:03.951Z,971.46
2018-03-08T03:07:13.686Z,971.46
2018-03-08T03:08:23.799Z,971.47
2018-03-08T03:09:33.809Z,971.49
2018-03-08T03:10:43.805Z,971.46
2018-03-08T03:11:53.791Z,971.49
2018-03-08T03:13:03.787Z,971.5
2018-03-08T03:14:13.515Z,971.52
2018-03-08T03:15:23.252Z,971.47
2018-03-08T03:16:32.978Z,971.45
2018-03-08T03:17:42.977Z,971.46
2018-03-08T03:18:52.708Z,971.4
2018-03-08T03:20:02.712Z,971.42
2018-03-08T03:21:12.718Z,971.39
2018-03-08T03:22:22.447Z,971.39
2018-03-08T03:23:32.432Z,971.36
2018-03-08T03:24:41.626Z,971.37
2018-03-08T03:25:51.619Z,971.33
2018-03-08T03:27:01.634Z,971.35
2018-03-08T03:28:11.369Z,971.3
2018-03-08T03:29:21.098Z,971.3
2018-03-08T03:30:31.094Z,971.3
2018-03-08T03:31:41.101Z,971.29
2018-03-08T03:32:50.830Z,971.31
2018-03-08T03:34:00.556Z,971.33
2018-03-08T03:35:10.281Z,971.38
2018-03-08T03:36:20.011Z,971.3
2018-03-08T03:37:30.009Z,971.35
2018-03-08T03:38:40.001Z,971.32
2018-03-08T03:39:49.730Z,971.31
2018-03-08T03:40:59.458Z,971.34
2018-03-08T03:42:09.454Z,971.33
2018-03-08T03:43:19.444Z,971.35
2018-03-08T03:44:29.438Z,971.32
2018-03-08T03:45:39.439Z,971.35
2018-03-08T03:46:49.429Z,971.33
2018-03-08T03:47:59.433Z,971.31
2018-03-08T03:49:09.161Z,971.33
2018-03-08T03:50:18.892Z,971.35
2018-03-08T03:51:28.906Z,971.3
2018-03-08T03:52:38.903Z,971.3
2018-03-08T03:53:48.107Z,971.27
2018-03-08T03:54:57.938Z,971.31
2018-03-08T03:56:07.684Z,971.29
2018-03-08T03:57:17.146Z,971.33
2018-03-08T03:58:27.139Z,971.3
2018-03-08T03:59:36.600Z,971.29
2018-03-08T04:03:23.147Z,971.28
2018-03-08T04:04:32.926Z,971.3
2018-03-08T04:05:42.989Z,971.3
2018-03-08T04:06:52.987Z,971.24
2018-03-08T04:08:02.980Z,971.26
2018-03-08T04:09:12.713Z,971.26
2018-03-08T04:10:22.445Z,971.27
2018-03-08T04:11:32.174Z,971.3
2018-03-08T04:12:41.894Z,971.25
2018-03-08T04:13:51.889Z,971.3
2018-03-08T04:15:01.618Z,971.25
2018-03-08T04:16:11.617Z,971.27
2018-03-08T04:17:21.614Z,971.3
2018-03-08T04:18:31.607Z,971.23
2018-03-08T04:19:41.327Z,971.28
2018-03-08T04:20:51.328Z,971.33
2018-03-08T04:22:01.338Z,971.28
2018-03-08T04:23:11.331Z,971.32
2018-03-08T04:24:21.054Z,971.29
2018-03-08T04:25:30.257Z,971.34
2018-03-08T04:26:40.252Z,971.36
2018-03-08T04:27:49.984Z,971.37
2018-03-08T04:28:59.495Z,971.36
2018-03-08T04:30:09.495Z,971.37
2018-03-08T04:31:19.228Z,971.38
2018-03-08T04:32:28.955Z,971.36
2018-03-08T04:33:38.951Z,971.39
2018-03-08T04:34:48.679Z,971.33
2018-03-08T04:35:58.402Z,971.36
2018-03-08T04:37:08.127Z,971.34
2018-03-08T04:38:18.112Z,971.32
2018-03-08T04:39:28.110Z,971.35
2018-03-08T04:40:38.105Z,971.38
2018-03-08T04:41:48.157Z,971.36
2018-03-08T04:42:57.882Z,971.35
2018-03-08T04:44:07.622Z,971.32
2018-03-08T04:45:17.619Z,971.3
2018-03-08T04:46:27.615Z,971.29
2018-03-08T04:47:37.342Z,971.34
2018-03-08T04:48:47.380Z,971.27
2018-03-08T04:49:57.181Z,971.28
2018-03-08T04:51:07.236Z,971.33
2018-03-08T04:52:17.244Z,971.31
2018-03-08T04:53:27.240Z,971.28
2018-03-08T04:54:36.963Z,971.31
2018-03-08T04:55:46.951Z,971.32
2018-03-08T04:56:56.679Z,971.3
2018-03-08T04:58:06.414Z,971.35
2018-03-08T04:59:16.137Z,971.32
2018-03-08T05:00:26.132Z,971.33
2018-03-08T05:01:36.135Z,971.32
2018-03-08T05:02:45.592Z,971.31
2018-03-08T05:03:55.316Z,971.32
2018-03-08T05:05:05.324Z,971.27
2018-03-08T05:06:14.789Z,971.28
2018-03-08T05:07:24.783Z,971.29
2018-03-08T05:08:34.778Z,971.31
2018-03-08T05:09:44.778Z,971.29
2018-03-08T05:10:54.773Z,971.34
2018-03-08T05:12:04.760Z,971.3
2018-03-08T05:13:14.217Z,971.3
2018-03-08T05:14:24.220Z,971.34
2018-03-08T05:15:33.946Z,971.3
2018-03-08T05:16:43.945Z,971.31
2018-03-08T05:17:53.932Z,971.31
2018-03-08T05:19:03.657Z,971.34
2018-03-08T05:20:13.426Z,971.33
2018-03-08T05:21:23.429Z,971.3
2018-03-08T05:22:33.478Z,971.34
2018-03-08T05:23:43.525Z,971.35
2018-03-08T05:24:53.632Z,971.39
2018-03-08T05:26:03.092Z,971.34
2018-03-08T05:27:12.556Z,971.38
2018-03-08T05:28:22.546Z,971.37
2018-03-08T05:29:32.274Z,971.32
2018-03-08T05:30:42.000Z,971.31
2018-03-08T05:31:51.477Z,971.35
2018-03-08T05:33:01.539Z,971.34
2018-03-08T05:34:11.002Z,971.36
2018-03-08T05:35:21.002Z,971.36
2018-03-08T05:36:31.000Z,971.33
2018-03-08T05:37:40.727Z,971.37
2018-03-08T05:38:49.917Z,971.37
2018-03-08T05:39:59.377Z,971.36
2018-03-08T05:41:09.529Z,971.34
2018-03-08T05:42:19.527Z,971.33
2018-03-08T05:43:29.517Z,971.33
2018-03-08T05:44:39.529Z,971.33
2018-03-08T05:45:49.524Z,971.33
2018-03-08T05:46:59.261Z,971.32
2018-03-08T05:48:09.254Z,971.3
2018-03-08T05:49:18.988Z,971.28
2018-03-08T05:50:28.451Z,971.31
2018-03-08T05:51:38.450Z,971.3
2018-03-08T05:52:47.918Z,971.34
2018-03-08T05:53:57.909Z,971.3
2018-03-08T05:55:07.639Z,971.33
2018-03-08T05:56:17.373Z,971.32
2018-03-08T05:57:27.374Z,971.3
2018-03-08T05:58:37.368Z,971.31
2018-03-08T05:59:47.363Z,971.32
2018-03-08T06:00:56.562Z,971.31
2018-03-08T06:02:06.024Z,971.34
2018-03-08T06:03:15.753Z,971.34
2018-03-08T06:04:25.785Z,971.32
2018-03-08T06:05:35.526Z,971.37
2018-03-08T06:06:45.523Z,971.38
2018-03-08T06:07:55.253Z,971.35
2018-03-08T06:09:05.274Z,971.36
2018-03-08T06:10:14.751Z,971.34
2018-03-08T06:11:24.743Z,971.34
2018-03-08T06:12:34.737Z,971.4
2018-03-08T06:13:44.471Z,971.42
2018-03-08T06:14:54.209Z,971.39
2018-03-08T06:16:03.937Z,971.43
2018-03-08T06:17:13.936Z,971.43
2018-03-08T06:18:23.936Z,971.42
2018-03-08T06:19:33.936Z,971.38
2018-03-08T06:20:43.929Z,971.41
2018-03-08T06:21:53.924Z,971.46
2018-03-08T06:23:03.923Z,971.43
2018-03-08T06:24:13.665Z,971.46
2018-03-08T06:25:23.715Z,971.45
2018-03-08T06:26:33.253Z,971.46
2018-03-08T06:27:43.259Z,971.45
2018-03-08T06:28:53.259Z,971.47
2018-03-08T06:30:03.249Z,971.54
2018-03-08T06:31:12.715Z,971.51
2018-03-08T06:32:22.709Z,971.5
2018-03-08T06:33:31.903Z,971.54
2018-03-08T06:34:41.898Z,971.52
2018-03-08T06:35:51.893Z,971.52
2018-03-08T06:37:01.624Z,971.49
2018-03-08T06:38:11.365Z,971.52
2018-03-08T06:39:21.365Z,971.57
2018-03-08T06:40:31.357Z,971.53
2018-03-08T06:41:41.086Z,971.5
2018-03-08T06:42:50.546Z,971.52
2018-03-08T06:44:00.539Z,971.48
2018-03-08T06:45:10.268Z,971.5
2018-03-08T06:46:19.727Z,971.45
2018-03-08T06:47:29.458Z,971.46
2018-03-08T06:48:39.498Z,971.49
2018-03-08T06:49:48.701Z,971.5
2018-03-08T06:50:58.431Z,971.48
2018-03-08T06:52:07.627Z,971.51
2018-03-08T06:53:17.630Z,971.57
2018-03-08T06:54:27.622Z,971.55
2018-03-08T06:55:37.618Z,971.54
2018-03-08T06:56:47.621Z,971.5
2018-03-08T06:57:57.622Z,971.5
2018-03-08T06:59:07.366Z,971.54
2018-03-08T07:00:16.831Z,971.51
2018-03-08T07:01:26.296Z,971.55
2018-03-08T07:02:35.758Z,971.55
2018-03-08T07:03:45.489Z,971.51
2018-03-08T07:04:55.483Z,971.51
2018-03-08T07:06:05.213Z,971.47
2018-03-08T07:07:14.679Z,971.45
2018-03-08T07:08:24.680Z,971.49
2018-03-08T07:09:34.407Z,971.48
2018-03-08T07:10:44.406Z,971.46
2018-03-08T07:11:54.143Z,971.52
2018-03-08T07:13:04.141Z,971.59
2018-03-08T07:14:13.881Z,971.58
2018-03-08T07:15:23.884Z,971.55
2018-03-08T07:16:33.612Z,971.56
2018-03-08T07:17:43.342Z,971.57
2018-03-08T07:18:53.341Z,971.52
2018-03-08T07:20:03.078Z,971.55
2018-03-08T07:21:13.084Z,971.53
2018-03-08T07:22:23.078Z,971.53
2018-03-08T07:23:32.932Z,971.57
2018-03-08T07:24:42.930Z,971.55
2018-03-08T07:25:52.928Z,971.52
2018-03-08T07:27:02.655Z,971.51
2018-03-08T07:28:12.384Z,971.52
2018-03-08T07:29:22.383Z,971.46
2018-03-08T07:30:32.116Z,971.49
2018-03-08T07:31:41.579Z,971.48
2018-03-08T07:32:51.037Z,971.48
2018-03-08T07:34:01.027Z,971.5
2018-03-08T07:35:11.035Z,971.48
2018-03-08T07:36:20.572Z,971.46
2018-03-08T07:37:30.573Z,971.48
2018-03-08T07:38:39.768Z,971.51
2018-03-08T07:39:49.534Z,971.5
2018-03-08T07:40:59.781Z,971.53
2018-03-08T07:42:09.790Z,971.49
2018-03-08T07:43:19.794Z,971.49
2018-03-08T07:44:28.990Z,971.52
2018-03-08T07:45:38.987Z,971.5
2018-03-08T07:46:48.720Z,971.48
2018-03-08T07:47:58.456Z,971.54
2018-03-08T07:49:07.920Z,971.53
2018-03-08T07:50:17.918Z,971.55
2018-03-08T07:51:27.655Z,971.54
2018-03-08T07:52:37.381Z,971.54
2018-03-08T07:53:46.889Z,971.55
2018-03-08T07:54:56.884Z,971.55
2018-03-08T07:56:06.884Z,971.56
2018-03-08T07:57:16.876Z,971.53
2018-03-08T07:58:26.883Z,971.57
2018-03-08T07:59:36.881Z,971.58
2018-03-08T08:00:46.883Z,971.54
2018-03-08T08:01:56.617Z,971.56
2018-03-08T08:03:06.354Z,971.56
2018-03-08T08:04:16.081Z,971.54
2018-03-08T08:05:25.540Z,971.54
2018-03-08T08:06:35.289Z,971.52
2018-03-08T08:07:44.489Z,971.53
2018-03-08T08:08:54.216Z,971.55
2018-03-08T08:10:03.947Z,971.54
2018-03-08T08:11:13.680Z,971.58
2018-03-08T08:12:23.680Z,971.53
2018-03-08T08:13:33.680Z,971.56
2018-03-08T08:14:43.673Z,971.54
2018-03-08T08:15:53.720Z,971.59
2018-03-08T08:17:03.540Z,971.54
2018-03-08T08:18:13.269Z,971.55
2018-03-08T08:19:23.002Z,971.55
2018-03-08T08:20:32.729Z,971.58
2018-03-08T08:21:42.192Z,971.59
2018-03-08T08:22:51.915Z,971.61
2018-03-08T08:24:01.642Z,971.6
2018-03-08T08:25:11.638Z,971.57
2018-03-08T08:26:21.372Z,971.62
2018-03-08T08:27:30.833Z,971.62
2018-03-08T08:28:40.564Z,971.63
2018-03-08T08:29:50.564Z,971.58
2018-03-08T08:31:00.029Z,971.59
2018-03-08T08:32:08.965Z,971.56
2018-03-08T08:33:18.968Z,971.61
2018-03-08T08:34:28.697Z,971.6
2018-03-08T08:35:38.756Z,971.59
2018-03-08T08:36:48.489Z,971.6
2018-03-08T08:37:57.955Z,971.63
2018-03-08T08:39:07.685Z,971.63
2018-03-08T08:40:17.418Z,971.62
2018-03-08T08:41:26.617Z,971.6
2018-03-08T08:42:36.621Z,971.56
2018-03-08T08:43:45.823Z,971.61
2018-03-08T08:44:55.558Z,971.56
2018-03-08T08:46:05.288Z,971.57
2018-03-08T08:47:15.284Z,971.57
2018-03-08T08:48:24.217Z,971.58
2018-03-08T08:49:34.215Z,971.57
2018-03-08T08:50:43.679Z,971.62
2018-03-08T08:51:53.139Z,971.64
2018-03-08T08:53:03.134Z,971.59
2018-03-08T08:54:12.597Z,971.63
2018-03-08T08:55:22.058Z,971.6
2018-03-08T08:56:32.062Z,971.62
2018-03-08T08:57:41.805Z,971.62
2018-03-08T08:58:51.272Z,971.65
2018-03-08T09:00:01.002Z,971.63
2018-03-08T09:01:10.511Z,971.68
2018-03-08T09:02:20.510Z,971.66
2018-03-08T09:03:30.239Z,971.7
2018-03-08T09:04:39.705Z,971.69
2018-03-08T09:05:49.711Z,971.68
2018-03-08T09:06:59.446Z,971.65
2018-03-08T09:08:09.186Z,971.65
2018-03-08T09:09:18.379Z,971.69
2018-03-08T09:10:28.383Z,971.67
2018-03-08T09:11:38.386Z,971.67
2018-03-08T09:12:48.122Z,971.7
2018-03-08T09:13:58.131Z,971.75
2018-03-08T09:15:07.865Z,971.73
2018-03-08T09:16:17.646Z,971.71
2018-03-08T09:17:27.742Z,971.71
2018-03-08T09:18:37.471Z,971.74
2018-03-08T09:19:47.212Z,971.77
2018-03-08T09:20:57.243Z,971.73
2018-03-08T09:22:07.062Z,971.71
2018-03-08T09:23:17.138Z,971.73
2018-03-08T09:24:27.143Z,971.71
2018-03-08T09:25:36.880Z,971.71
2018-03-08T09:26:46.343Z,971.69
2018-03-08T09:27:55.539Z,971.67
2018-03-08T09:29:05.333Z,971.63
2018-03-08T09:30:15.066Z,971.66
2018-03-08T09:31:24.801Z,971.66
2018-03-08T09:32:34.529Z,971.68
2018-03-08T09:33:44.533Z,971.63
2018-03-08T09:34:54.611Z,971.69
2018-03-08T09:36:04.344Z,971.68
2018-03-08T09:37:14.079Z,971.64
2018-03-08T09:38:24.091Z,971.66
2018-03-08T09:39:33.841Z,971.7
2018-03-08T09:40:43.836Z,971.63
2018-03-08T09:41:53.834Z,971.65
2018-03-08T09:43:03.832Z,971.63
2018-03-08T09:44:12.764Z,971.65
2018-03-08T09:45:21.956Z,971.64
2018-03-08T09:46:31.469Z,971.62
2018-03-08T09:47:41.468Z,971.59
2018-03-08T09:48:51.204Z,971.62
2018-03-08T09:50:01.204Z,971.57
2018-03-08T09:51:10.671Z,971.57
2018-03-08T09:52:20.768Z,971.6
2018-03-08T09:53:30.772Z,971.55
2018-03-08T09:54:40.768Z,971.57
2018-03-08T09:55:50.505Z,971.57
2018-03-08T09:57:00.237Z,971.58
2018-03-08T09:58:09.434Z,971.55
2018-03-08T09:59:19.449Z,971.58
2018-03-08T10:00:29.143Z,971.58
2018-03-08T10:01:38.885Z,971.58
2018-03-08T10:02:48.349Z,971.58
2018-03-08T10:03:58.704Z,971.6
2018-03-08T10:05:08.168Z,971.56
2018-03-08T10:06:18.176Z,971.54
2018-03-08T10:07:28.174Z,971.5
2018-03-08T10:08:38.187Z,971.48
2018-03-08T10:09:48.188Z,971.49
2018-03-08T10:10:58.198Z,971.51
2018-03-08T10:12:07.668Z,971.52
2018-03-08T10:13:17.130Z,971.51
2018-03-08T10:14:26.595Z,971.48
2018-03-08T10:15:36.590Z,971.48
2018-03-08T10:16:46.594Z,971.49
2018-03-08T10:17:56.327Z,971.49
2018-03-08T10:19:06.102Z,971.47
2018-03-08T10:20:15.569Z,971.48
2018-03-08T10:21:44.339Z,971.45
2018-03-08T10:22:54.994Z,971.43
2018-03-08T10:24:05.008Z,971.43
2018-03-08T10:25:14.739Z,971.45
2018-03-08T10:26:24.474Z,971.43
2018-03-08T10:27:34.201Z,971.4
2018-03-08T10:28:44.200Z,971.4
2018-03-08T10:29:53.940Z,971.34
2018-03-08T10:31:03.405Z,971.32
2018-03-08T10:32:12.606Z,971.36
2018-03-08T10:33:22.337Z,971.37
2018-03-08T10:34:32.340Z,971.35
2018-03-08T10:35:42.340Z,971.33
2018-03-08T10:36:52.358Z,971.34
2018-03-08T10:38:02.088Z,971.33
2018-03-08T10:41:51.277Z,971.33
2018-03-08T10:43:01.004Z,971.34
2018-03-08T10:44:10.735Z,971.34
2018-03-08T10:45:20.726Z,971.32
2018-03-08T10:46:30.456Z,971.35
2018-03-08T10:47:40.189Z,971.34
2018-03-08T10:50:10.339Z,971.35
2018-03-08T10:51:20.337Z,971.35
2018-03-08T10:52:30.065Z,971.36
2018-03-08T10:53:39.792Z,971.38
2018-03-08T10:54:49.518Z,971.38
2018-03-08T10:55:59.505Z,971.35
2018-03-08T10:57:09.508Z,971.34
2018-03-08T10:58:20.726Z,971.38
2018-03-08T10:59:30.718Z,971.38
2018-03-08T11:00:40.712Z,971.37
2018-03-08T11:01:50.710Z,971.36
2018-03-08T11:03:00.709Z,971.36
2018-03-08T11:04:11.900Z,971.31
2018-03-08T11:05:21.627Z,971.38
2018-03-08T11:06:31.363Z,971.35
2018-03-08T11:07:41.364Z,971.34
2018-03-08T11:08:51.362Z,971.36
2018-03-08T11:10:00.826Z,971.37
2018-03-08T11:11:10.833Z,971.35
2018-03-08T11:12:20.831Z,971.34
2018-03-08T11:13:30.827Z,971.36
2018-03-08T11:14:40.559Z,971.38
2018-03-08T11:15:50.327Z,971.32
2018-03-08T11:17:00.329Z,971.35
2018-03-08T11:18:09.800Z,971.38
2018-03-08T11:19:19.292Z,971.34
2018-03-08T11:20:29.070Z,971.36
2018-03-08T11:21:38.798Z,971.32
2018-03-08T11:22:48.794Z,971.35
2018-03-08T11:23:58.589Z,971.3
2018-03-08T11:25:08.331Z,971.35
2018-03-08T11:26:18.335Z,971.29
2018-03-08T11:27:28.331Z,971.33
2018-03-08T11:28:38.074Z,971.33
2018-03-08T11:29:48.073Z,971.33
2018-03-08T11:30:58.159Z,971.31
2018-03-08T11:32:07.895Z,971.3
2018-03-08T11:33:17.899Z,971.33
2018-03-08T11:34:27.896Z,971.29
2018-03-08T11:35:37.897Z,971.29
2018-03-08T11:36:47.642Z,971.27
2018-03-08T11:37:57.109Z,971.29
2018-03-08T11:39:07.109Z,971.31
2018-03-08T11:40:17.108Z,971.29
2018-03-08T11:41:27.161Z,971.28
2018-03-08T11:42:36.623Z,971.31
2018-03-08T11:43:46.089Z,971.24
2018-03-08T11:44:55.555Z,971.27
2018-03-08T11:46:06.647Z,971.21
2018-03-08T11:47:16.433Z,971.23
2018-03-08T11:48:27.645Z,971.23
2018-03-08T11:49:38.798Z,971.22
2018-03-08T11:50:48.541Z,971.19
2018-03-08T11:51:58.270Z,971.19
2018-03-08T11:53:09.418Z,971.17
2018-03-08T11:54:19.234Z,971.17
2018-03-08T11:55:29.107Z,971.18
2018-03-08T11:56:38.841Z,971.2
2018-03-08T11:57:48.850Z,971.15
2018-03-08T11:58:58.849Z,971.17
2018-03-08T12:00:08.852Z,971.13
2018-03-08T12:01:18.598Z,971.17
2018-03-08T12:02:28.626Z,971.13
2018-03-08T12:03:38.625Z,971.11
2018-03-08T12:04:48.633Z,971.13
2018-03-08T12:05:58.365Z,971.14
2018-03-08T12:07:07.716Z,971.12
2018-03-08T12:08:17.722Z,971.09
2018-03-08T12:09:27.719Z,971.12
2018-03-08T12:10:37.452Z,971.11
2018-03-08T12:11:47.450Z,971.09
2018-03-08T12:12:57.219Z,971.14
2018-03-08T12:14:06.681Z,971.1
2018-03-08T12:15:16.434Z,971.13
2018-03-08T12:16:26.166Z,971.12
2018-03-08T12:17:36.169Z,971.1
2018-03-08T12:18:45.367Z,971.11
2018-03-08T12:19:55.369Z,970.99
2018-03-08T12:21:04.837Z,971.03
2018-03-08T12:22:14.302Z,970.96
2018-03-08T12:23:24.047Z,970.99
2018-03-08T12:24:33.512Z,970.99
2018-03-08T12:25:43.251Z,970.98
2018-03-08T12:26:53.258Z,971.01
2018-03-08T12:28:02.990Z,970.98
2018-03-08T12:29:13.127Z,970.98
2018-03-08T12:30:23.136Z,970.97
2018-03-08T12:31:32.873Z,970.96
2018-03-08T12:32:42.878Z,970.95
2018-03-08T12:33:52.978Z,970.91
2018-03-08T12:35:02.977Z,970.91
2018-03-08T12:36:12.759Z,970.93
2018-03-08T12:37:22.493Z,970.87
2018-03-08T12:38:31.963Z,970.89
2018-03-08T12:39:41.699Z,970.92
2018-03-08T12:40:51.430Z,970.92
2018-03-08T12:42:01.171Z,970.92
2018-03-08T12:43:11.182Z,970.94
2018-03-08T12:44:20.652Z,970.92
2018-03-08T12:45:30.166Z,970.9
2018-03-08T12:46:39.592Z,970.93
2018-03-08T12:47:49.603Z,970.9
2018-03-08T12:48:59.339Z,970.88
2018-03-08T12:50:09.338Z,970.87
2018-03-08T12:51:19.341Z,970.91
2018-03-08T12:52:29.083Z,970.89
2018-03-08T12:53:39.102Z,970.88
2018-03-08T12:54:49.097Z,970.88
2018-03-08T12:55:58.867Z,970.89
2018-03-08T12:57:08.374Z,970.89
2018-03-08T12:58:18.017Z,970.84
2018-03-08T12:59:28.018Z,970.87
2018-03-08T13:00:38.025Z,970.85
2018-03-08T13:01:48.023Z,970.85
2018-03-08T13:02:57.759Z,970.85
2018-03-08T13:04:07.765Z,970.85
2018-03-08T13:05:17.504Z,970.86
2018-03-08T13:06:26.975Z,970.82
2018-03-08T13:07:36.982Z,970.82
2018-03-08T13:08:46.982Z,970.82
2018-03-08T13:09:56.993Z,970.78
2018-03-08T13:11:06.471Z,970.81
2018-03-08T13:12:16.476Z,970.84
2018-03-08T13:13:26.209Z,970.78
2018-03-08T13:14:35.948Z,970.77
2018-03-08T13:15:45.679Z,970.8
2018-03-08T13:16:55.464Z,970.74
2018-03-08T13:18:05.197Z,970.7
2018-03-08T13:19:14.663Z,970.75
2018-03-08T13:20:24.678Z,970.72
2018-03-08T13:21:34.199Z,970.74
2018-03-08T13:22:44.202Z,970.72
2018-03-08T13:23:54.250Z,970.69
2018-03-08T13:25:04.257Z,970.67
2018-03-08T13:26:14.258Z,970.72
2018-03-08T13:27:24.037Z,970.71
2018-03-08T13:28:34.058Z,970.69
2018-03-08T13:29:44.059Z,970.7
2018-03-08T13:30:53.796Z,970.68
2018-03-08T13:32:03.527Z,970.63
2018-03-08T13:33:13.529Z,970.64
2018-03-08T13:34:23.534Z,970.62
2018-03-08T13:35:33.277Z,970.64
2018-03-08T13:36:43.273Z,970.62
2018-03-08T13:37:53.005Z,970.63
2018-03-08T13:39:02.737Z,970.63
2018-03-08T13:40:12.527Z,970.64
2018-03-08T13:41:22.628Z,970.62
2018-03-08T13:42:32.365Z,970.63
2018-03-08T13:43:42.395Z,970.65
2018-03-08T13:44:51.867Z,970.65
2018-03-08T13:46:01.867Z,970.64
2018-03-08T13:47:11.065Z,970.68
2018-03-08T13:48:21.065Z,970.68
2018-03-08T13:49:30.796Z,970.67
2018-03-08T13:50:40.296Z,970.65
2018-03-08T13:51:50.030Z,970.62
2018-03-08T13:53:00.032Z,970.63
2018-03-08T13:54:10.037Z,970.61
2018-03-08T13:55:20.039Z,970.61
2018-03-08T13:56:29.774Z,970.62
2018-03-08T13:57:39.532Z,970.62
2018-03-08T13:58:49.088Z,970.62
2018-03-08T13:59:59.090Z,970.57
2018-03-08T14:01:08.825Z,970.56
2018-03-08T14:02:18.828Z,970.53
2018-03-08T14:03:28.836Z,970.55
2018-03-08T14:04:38.843Z,970.5
2018-03-08T14:05:48.580Z,970.52
2018-03-08T14:06:58.585Z,970.51
2018-03-08T14:08:07.519Z,970.48
2018-03-08T14:09:17.250Z,970.47
2018-03-08T14:10:27.252Z,970.44
2018-03-08T14:11:37.113Z,970.43
2018-03-08T14:12:46.919Z,970.42
2018-03-08T14:13:57.052Z,970.44
2018-03-08T14:15:07.071Z,970.42
2018-03-08T14:16:16.809Z,970.4
2018-03-08T14:17:26.816Z,970.38
2018-03-08T14:18:36.552Z,970.38
2018-03-08T14:19:46.015Z,970.35
2018-03-08T14:20:56.015Z,970.35
2018-03-08T14:22:05.756Z,970.37
2018-03-08T14:23:15.489Z,970.37
2018-03-08T14:24:25.494Z,970.39
2018-03-08T14:25:35.229Z,970.43
2018-03-08T14:26:44.960Z,970.43
2018-03-08T14:27:54.703Z,970.41
2018-03-08T14:29:04.447Z,970.39
2018-03-08T14:30:13.921Z,970.41
2018-03-08T14:31:23.927Z,970.4
2018-03-08T14:32:33.662Z,970.4
2018-03-08T14:33:43.397Z,970.39
2018-03-08T14:34:53.193Z,970.42
2018-03-08T14:36:03.199Z,970.36
2018-03-08T14:37:12.939Z,970.38
2018-03-08T14:38:22.948Z,970.35
2018-03-08T14:39:32.686Z,970.34
2018-03-08T14:40:42.831Z,970.37
2018-03-08T14:41:52.564Z,970.36